sensor_id;sensor_type;location;lat;lon;timestamp;pressure;altitude;pressure_sealevel;temperature;humidity
45621;BME280;31345;51.522;10.702;2023-01-01T00:00:23;98745.22;;;13.82;74.25
45621;BME280;31345;51.522;10.702;2023-01-01T00:02:52;98739.41;;;13.78;73.96
45621;BME280;31345;51.522;10.702;2023-01-01T00:05:20;98740.47;;;13.66;75.35
45621;BME280;31345;51.522;10.702;2023-01-01T00:07:48;98750.19;;;13.75;74.54
45621;BME280;31345;51.522;10.702;2023-01-01T00:10:15;98747.97;;;13.80;74.38
45621;BME280;31345;51.522;10.702;2023-01-01T00:12:56;98755.25;;;13.67;75.42
45621;BME280;31345;51.522;10.702;2023-01-01T00:15:26;98753.00;;;13.62;75.58
45621;BME280;31345;51.522;10.702;2023-01-01T00:17:55;98761.59;;;13.64;75.29
45621;BME280;31345;51.522;10.702;2023-01-01T00:20:23;98754.06;;;13.81;72.90
45621;BME280;31345;51.522;10.702;2023-01-01T00:22:52;98759.81;;;13.53;76.27
45621;BME280;31345;51.522;10.702;2023-01-01T00:25:20;98758.22;;;13.41;77.07
45621;BME280;31345;51.522;10.702;2023-01-01T00:27:48;98754.25;;;13.46;75.56
45621;BME280;31345;51.522;10.702;2023-01-01T00:30:16;98752.56;;;13.57;74.96
45621;BME280;31345;51.522;10.702;2023-01-01T00:32:44;98754.34;;;13.78;74.51
45621;BME280;31345;51.522;10.702;2023-01-01T00:35:13;98747.66;;;13.73;73.62
45621;BME280;31345;51.522;10.702;2023-01-01T00:37:41;98755.22;;;13.45;76.49
45621;BME280;31345;51.522;10.702;2023-01-01T00:40:11;98755.38;;;13.65;74.95
45621;BME280;31345;51.522;10.702;2023-01-01T00:42:39;98754.16;;;13.69;74.82
45621;BME280;31345;51.522;10.702;2023-01-01T00:45:07;98748.59;;;13.62;74.64
45621;BME280;31345;51.522;10.702;2023-01-01T00:47:35;98760.91;;;13.50;76.37
45621;BME280;31345;51.522;10.702;2023-01-01T00:50:03;98755.09;;;13.47;76.13
45621;BME280;31345;51.522;10.702;2023-01-01T00:52:33;98760.59;;;13.44;75.96
45621;BME280;31345;51.522;10.702;2023-01-01T00:55:00;98757.56;;;13.60;75.31
45621;BME280;31345;51.522;10.702;2023-01-01T00:57:28;98765.63;;;13.68;74.95
45621;BME280;31345;51.522;10.702;2023-01-01T00:59:56;98759.63;;;13.87;73.01
45621;BME280;31345;51.522;10.702;2023-01-01T01:02:24;98765.50;;;13.70;75.39
45621;BME280;31345;51.522;10.702;2023-01-01T01:04:53;98769.63;;;13.51;76.56
45621;BME280;31345;51.522;10.702;2023-01-01T01:07:22;98761.66;;;13.74;74.57
45621;BME280;31345;51.522;10.702;2023-01-01T01:09:50;98767.56;;;13.55;76.15
45621;BME280;31345;51.522;10.702;2023-01-01T01:12:18;98751.47;;;13.59;75.84
45621;BME280;31345;51.522;10.702;2023-01-01T01:14:46;98754.09;;;13.59;75.42
45621;BME280;31345;51.522;10.702;2023-01-01T01:17:13;98749.16;;;13.66;75.20
45621;BME280;31345;51.522;10.702;2023-01-01T01:19:42;98747.53;;;13.75;74.60
45621;BME280;31345;51.522;10.702;2023-01-01T01:22:10;98746.88;;;13.83;74.01
45621;BME280;31345;51.522;10.702;2023-01-01T01:24:38;98742.84;;;13.79;74.15
45621;BME280;31345;51.522;10.702;2023-01-01T01:27:07;98745.41;;;13.90;72.99
45621;BME280;31345;51.522;10.702;2023-01-01T01:29:35;98754.63;;;13.84;73.20
45621;BME280;31345;51.522;10.702;2023-01-01T01:32:03;98759.88;;;13.84;73.41
45621;BME280;31345;51.522;10.702;2023-01-01T01:34:31;98758.84;;;13.66;73.94
45621;BME280;31345;51.522;10.702;2023-01-01T01:36:59;98757.28;;;13.63;74.68
45621;BME280;31345;51.522;10.702;2023-01-01T01:39:27;98764.59;;;13.59;75.13
45621;BME280;31345;51.522;10.702;2023-01-01T01:41:54;98770.94;;;13.78;73.85
45621;BME280;31345;51.522;10.702;2023-01-01T01:44:50;98780.72;;;13.76;73.98
45621;BME280;31345;51.522;10.702;2023-01-01T01:47:23;98779.84;;;13.66;74.69
45621;BME280;31345;51.522;10.702;2023-01-01T01:49:56;98776.81;;;13.70;74.24
45621;BME280;31345;51.522;10.702;2023-01-01T01:52:27;98774.13;;;13.82;73.04
45621;BME280;31345;51.522;10.702;2023-01-01T01:54:56;98771.75;;;13.79;72.99
45621;BME280;31345;51.522;10.702;2023-01-01T01:57:24;98773.75;;;13.65;74.68
45621;BME280;31345;51.522;10.702;2023-01-01T01:59:54;98774.38;;;13.57;74.77
45621;BME280;31345;51.522;10.702;2023-01-01T02:02:28;98776.03;;;13.37;75.77
45621;BME280;31345;51.522;10.702;2023-01-01T02:04:58;98779.28;;;13.50;75.28
45621;BME280;31345;51.522;10.702;2023-01-01T02:07:27;98777.34;;;13.64;73.89
45621;BME280;31345;51.522;10.702;2023-01-01T02:09:57;98774.38;;;13.57;73.28
45621;BME280;31345;51.522;10.702;2023-01-01T02:12:25;98772.59;;;13.58;74.52
45621;BME280;31345;51.522;10.702;2023-01-01T02:14:55;98776.91;;;13.47;75.16
45621;BME280;31345;51.522;10.702;2023-01-01T02:17:31;98772.13;;;13.53;74.25
45621;BME280;31345;51.522;10.702;2023-01-01T02:20:13;98767.97;;;13.71;72.70
45621;BME280;31345;51.522;10.702;2023-01-01T02:23:14;98770.47;;;13.52;73.00
45621;BME280;31345;51.522;10.702;2023-01-01T02:25:54;98774.31;;;13.26;75.90
45621;BME280;31345;51.522;10.702;2023-01-01T02:28:39;98772.72;;;13.02;76.17
45621;BME280;31345;51.522;10.702;2023-01-01T02:31:14;98773.50;;;13.14;76.28
45621;BME280;31345;51.522;10.702;2023-01-01T02:33:44;98764.03;;;12.90;77.91
45621;BME280;31345;51.522;10.702;2023-01-01T02:36:12;98766.44;;;12.82;78.71
45621;BME280;31345;51.522;10.702;2023-01-01T02:38:42;98777.28;;;12.89;78.53
45621;BME280;31345;51.522;10.702;2023-01-01T02:41:14;98763.59;;;12.85;76.70
45621;BME280;31345;51.522;10.702;2023-01-01T02:43:45;98759.53;;;12.81;77.90
45621;BME280;31345;51.522;10.702;2023-01-01T02:46:13;98755.50;;;12.77;78.29
45621;BME280;31345;51.522;10.702;2023-01-01T02:48:42;98756.72;;;12.61;79.16
45621;BME280;31345;51.522;10.702;2023-01-01T02:51:14;98760.56;;;12.45;80.47
45621;BME280;31345;51.522;10.702;2023-01-01T02:53:47;98750.94;;;12.34;78.76
45621;BME280;31345;51.522;10.702;2023-01-01T02:56:26;98744.72;;;12.36;80.19
45621;BME280;31345;51.522;10.702;2023-01-01T02:59:13;98744.59;;;12.60;78.33
45621;BME280;31345;51.522;10.702;2023-01-01T03:02:13;98750.53;;;12.62;78.96
45621;BME280;31345;51.522;10.702;2023-01-01T03:04:52;98751.28;;;12.53;79.45
45621;BME280;31345;51.522;10.702;2023-01-01T03:07:25;98755.66;;;12.52;79.65
45621;BME280;31345;51.522;10.702;2023-01-01T03:10:03;98759.72;;;12.56;79.84
45621;BME280;31345;51.522;10.702;2023-01-01T03:12:37;98755.75;;;12.62;79.14
45621;BME280;31345;51.522;10.702;2023-01-01T03:15:17;98766.59;;;12.69;78.10
45621;BME280;31345;51.522;10.702;2023-01-01T03:17:49;98779.00;;;12.78;78.21
45621;BME280;31345;51.522;10.702;2023-01-01T03:20:24;98781.44;;;12.91;76.54
45621;BME280;31345;51.522;10.702;2023-01-01T03:22:57;98791.75;;;13.16;74.70
45621;BME280;31345;51.522;10.702;2023-01-01T03:25:30;98809.03;;;13.18;75.13
45621;BME280;31345;51.522;10.702;2023-01-01T03:28:03;98812.63;;;13.17;75.44
45621;BME280;31345;51.522;10.702;2023-01-01T03:30:35;98820.06;;;13.12;75.68
45621;BME280;31345;51.522;10.702;2023-01-01T03:33:06;98835.09;;;13.43;73.97
45621;BME280;31345;51.522;10.702;2023-01-01T03:35:38;98836.69;;;13.55;72.58
45621;BME280;31345;51.522;10.702;2023-01-01T03:38:09;98842.56;;;13.47;72.88
45621;BME280;31345;51.522;10.702;2023-01-01T03:40:38;98836.13;;;13.19;76.08
45621;BME280;31345;51.522;10.702;2023-01-01T03:43:11;98827.63;;;12.94;77.80
45621;BME280;31345;51.522;10.702;2023-01-01T03:45:43;98827.25;;;12.87;77.46
45621;BME280;31345;51.522;10.702;2023-01-01T03:48:12;98827.00;;;13.02;75.50
45621;BME280;31345;51.522;10.702;2023-01-01T03:50:49;98830.94;;;12.96;77.38
45621;BME280;31345;51.522;10.702;2023-01-01T03:53:24;98826.44;;;12.87;78.70
45621;BME280;31345;51.522;10.702;2023-01-01T03:55:59;98822.72;;;12.89;78.63
45621;BME280;31345;51.522;10.702;2023-01-01T03:58:33;98821.84;;;13.00;77.86
45621;BME280;31345;51.522;10.702;2023-01-01T04:01:09;98819.69;;;13.05;77.43
45621;BME280;31345;51.522;10.702;2023-01-01T04:03:39;98811.38;;;13.00;78.00
45621;BME280;31345;51.522;10.702;2023-01-01T04:06:09;98823.19;;;12.94;79.08
45621;BME280;31345;51.522;10.702;2023-01-01T04:08:38;98812.59;;;12.84;79.78
45621;BME280;31345;51.522;10.702;2023-01-01T04:11:09;98818.97;;;13.15;77.52
45621;BME280;31345;51.522;10.702;2023-01-01T04:13:53;98817.22;;;13.04;78.38
45621;BME280;31345;51.522;10.702;2023-01-01T04:16:22;98816.03;;;12.96;78.79
45621;BME280;31345;51.522;10.702;2023-01-01T04:18:50;98815.25;;;13.17;77.31
45621;BME280;31345;51.522;10.702;2023-01-01T04:21:17;98810.28;;;13.35;74.42
45621;BME280;31345;51.522;10.702;2023-01-01T04:23:45;98820.63;;;13.16;77.18
45621;BME280;31345;51.522;10.702;2023-01-01T04:26:13;98816.72;;;12.98;78.28
45621;BME280;31345;51.522;10.702;2023-01-01T04:28:41;98812.44;;;12.97;78.45
45621;BME280;31345;51.522;10.702;2023-01-01T04:31:09;98818.84;;;13.16;76.17
45621;BME280;31345;51.522;10.702;2023-01-01T04:33:39;98827.28;;;13.20;75.81
45621;BME280;31345;51.522;10.702;2023-01-01T04:36:08;98820.94;;;13.22;75.85
45621;BME280;31345;51.522;10.702;2023-01-01T04:38:37;98821.63;;;13.36;75.09
45621;BME280;31345;51.522;10.702;2023-01-01T04:41:05;98822.66;;;13.23;76.58
45621;BME280;31345;51.522;10.702;2023-01-01T04:43:33;98827.41;;;13.18;77.27
45621;BME280;31345;51.522;10.702;2023-01-01T04:46:02;98832.19;;;13.24;76.93
45621;BME280;31345;51.522;10.702;2023-01-01T04:48:30;98830.63;;;13.22;76.96
45621;BME280;31345;51.522;10.702;2023-01-01T04:51:01;98820.34;;;13.30;75.74
45621;BME280;31345;51.522;10.702;2023-01-01T04:53:30;98831.69;;;13.19;77.41
45621;BME280;31345;51.522;10.702;2023-01-01T04:56:02;98826.19;;;13.22;76.53
45621;BME280;31345;51.522;10.702;2023-01-01T04:58:30;98834.97;;;13.11;77.47
45621;BME280;31345;51.522;10.702;2023-01-01T05:00:57;98839.63;;;13.08;78.09
45621;BME280;31345;51.522;10.702;2023-01-01T05:03:25;98840.78;;;13.15;77.76
45621;BME280;31345;51.522;10.702;2023-01-01T05:06:00;98839.75;;;13.06;77.46
45621;BME280;31345;51.522;10.702;2023-01-01T05:08:28;98843.19;;;13.07;77.13
45621;BME280;31345;51.522;10.702;2023-01-01T05:10:59;98856.06;;;13.10;77.23
45621;BME280;31345;51.522;10.702;2023-01-01T05:13:28;98857.16;;;13.07;77.28
45621;BME280;31345;51.522;10.702;2023-01-01T05:15:56;98857.03;;;13.09;77.84
45621;BME280;31345;51.522;10.702;2023-01-01T05:18:24;98851.06;;;13.07;77.38
45621;BME280;31345;51.522;10.702;2023-01-01T05:20:51;98849.41;;;13.06;77.45
45621;BME280;31345;51.522;10.702;2023-01-01T05:23:24;98866.25;;;12.92;78.13
45621;BME280;31345;51.522;10.702;2023-01-01T05:25:52;98867.34;;;12.78;79.98
45621;BME280;31345;51.522;10.702;2023-01-01T05:28:21;98873.16;;;12.81;79.49
45621;BME280;31345;51.522;10.702;2023-01-01T05:30:50;98867.91;;;12.93;78.71
45621;BME280;31345;51.522;10.702;2023-01-01T05:33:17;98877.72;;;12.79;80.66
45621;BME280;31345;51.522;10.702;2023-01-01T05:35:52;98870.41;;;12.94;78.94
45621;BME280;31345;51.522;10.702;2023-01-01T05:38:20;98873.91;;;12.83;79.80
45621;BME280;31345;51.522;10.702;2023-01-01T05:40:49;98874.25;;;12.90;80.13
45621;BME280;31345;51.522;10.702;2023-01-01T05:43:16;98877.84;;;12.78;80.23
45621;BME280;31345;51.522;10.702;2023-01-01T05:45:44;98883.53;;;12.83;80.23
45621;BME280;31345;51.522;10.702;2023-01-01T05:48:11;98885.06;;;12.97;80.22
45621;BME280;31345;51.522;10.702;2023-01-01T05:50:39;98886.16;;;12.94;79.73
45621;BME280;31345;51.522;10.702;2023-01-01T05:53:06;98884.28;;;12.85;80.31
45621;BME280;31345;51.522;10.702;2023-01-01T05:55:34;98893.47;;;12.79;80.86
45621;BME280;31345;51.522;10.702;2023-01-01T05:58:03;98899.16;;;12.84;80.68
45621;BME280;31345;51.522;10.702;2023-01-01T06:00:31;98900.00;;;12.96;79.97
45621;BME280;31345;51.522;10.702;2023-01-01T06:02:58;98904.06;;;12.89;80.77
45621;BME280;31345;51.522;10.702;2023-01-01T06:05:26;98904.53;;;12.94;79.98
45621;BME280;31345;51.522;10.702;2023-01-01T06:07:54;98898.06;;;12.98;80.15
45621;BME280;31345;51.522;10.702;2023-01-01T06:10:21;98893.91;;;12.84;80.83
45621;BME280;31345;51.522;10.702;2023-01-01T06:12:49;98898.59;;;12.92;80.35
45621;BME280;31345;51.522;10.702;2023-01-01T06:15:18;98897.75;;;12.80;81.40
45621;BME280;31345;51.522;10.702;2023-01-01T06:17:45;98897.63;;;12.93;80.53
45621;BME280;31345;51.522;10.702;2023-01-01T06:20:13;98887.00;;;12.95;80.80
45621;BME280;31345;51.522;10.702;2023-01-01T06:22:40;98889.75;;;12.93;80.83
45621;BME280;31345;51.522;10.702;2023-01-01T06:25:08;98893.34;;;12.92;80.76
45621;BME280;31345;51.522;10.702;2023-01-01T06:27:36;98897.84;;;12.79;82.27
45621;BME280;31345;51.522;10.702;2023-01-01T06:30:05;98901.94;;;12.71;82.46
45621;BME280;31345;51.522;10.702;2023-01-01T06:32:35;98899.66;;;12.78;82.08
45621;BME280;31345;51.522;10.702;2023-01-01T06:35:02;98910.75;;;12.70;83.14
45621;BME280;31345;51.522;10.702;2023-01-01T06:37:30;98901.44;;;12.89;81.85
45621;BME280;31345;51.522;10.702;2023-01-01T06:39:58;98907.28;;;12.81;82.60
45621;BME280;31345;51.522;10.702;2023-01-01T06:42:25;98902.13;;;12.91;81.79
45621;BME280;31345;51.522;10.702;2023-01-01T06:44:54;98909.06;;;12.92;81.56
45621;BME280;31345;51.522;10.702;2023-01-01T06:47:22;98907.13;;;13.06;80.29
45621;BME280;31345;51.522;10.702;2023-01-01T06:49:51;98904.41;;;13.07;80.36
45621;BME280;31345;51.522;10.702;2023-01-01T06:52:19;98896.66;;;12.94;81.50
45621;BME280;31345;51.522;10.702;2023-01-01T06:54:47;98898.06;;;13.10;80.72
45621;BME280;31345;51.522;10.702;2023-01-01T06:57:14;98902.75;;;13.06;81.28
45621;BME280;31345;51.522;10.702;2023-01-01T06:59:42;98912.75;;;13.01;81.18
45621;BME280;31345;51.522;10.702;2023-01-01T07:02:10;98918.84;;;13.02;81.71
45621;BME280;31345;51.522;10.702;2023-01-01T07:04:38;98927.91;;;13.09;81.08
45621;BME280;31345;51.522;10.702;2023-01-01T07:07:07;98916.91;;;13.15;80.76
45621;BME280;31345;51.522;10.702;2023-01-01T07:09:35;98916.25;;;13.46;78.21
45621;BME280;31345;51.522;10.702;2023-01-01T07:12:02;98936.00;;;13.17;80.19
45621;BME280;31345;51.522;10.702;2023-01-01T07:14:30;98932.41;;;13.18;80.54
45621;BME280;31345;51.522;10.702;2023-01-01T07:16:58;98942.81;;;13.08;81.33
45621;BME280;31345;51.522;10.702;2023-01-01T07:19:25;98950.78;;;13.18;80.86
45621;BME280;31345;51.522;10.702;2023-01-01T07:21:53;98946.25;;;13.20;80.79
45621;BME280;31345;51.522;10.702;2023-01-01T07:24:22;98954.47;;;13.39;79.30
45621;BME280;31345;51.522;10.702;2023-01-01T07:26:50;98962.72;;;13.22;80.83
45621;BME280;31345;51.522;10.702;2023-01-01T07:29:18;98965.56;;;13.31;80.01
45621;BME280;31345;51.522;10.702;2023-01-01T07:31:45;98968.81;;;13.23;80.66
45621;BME280;31345;51.522;10.702;2023-01-01T07:34:15;98960.06;;;13.34;80.02
45621;BME280;31345;51.522;10.702;2023-01-01T07:36:44;98976.22;;;13.18;81.47
45621;BME280;31345;51.522;10.702;2023-01-01T07:39:12;98972.34;;;13.33;80.11
45621;BME280;31345;51.522;10.702;2023-01-01T07:41:41;98959.84;;;13.26;80.52
45621;BME280;31345;51.522;10.702;2023-01-01T07:44:08;98964.41;;;13.23;80.73
45621;BME280;31345;51.522;10.702;2023-01-01T07:46:36;98972.97;;;13.37;79.42
45621;BME280;31345;51.522;10.702;2023-01-01T07:49:04;98972.63;;;13.30;80.53
45621;BME280;31345;51.522;10.702;2023-01-01T07:51:32;98975.94;;;13.32;80.05
45621;BME280;31345;51.522;10.702;2023-01-01T07:53:59;98980.28;;;13.22;80.91
45621;BME280;31345;51.522;10.702;2023-01-01T07:56:27;98976.44;;;13.26;80.74
45621;BME280;31345;51.522;10.702;2023-01-01T07:58:56;98988.97;;;13.34;80.20
45621;BME280;31345;51.522;10.702;2023-01-01T08:01:24;98990.41;;;13.27;80.68
45621;BME280;31345;51.522;10.702;2023-01-01T08:03:52;98987.75;;;13.27;80.88
45621;BME280;31345;51.522;10.702;2023-01-01T08:06:20;98997.06;;;13.31;80.55
45621;BME280;31345;51.522;10.702;2023-01-01T08:08:48;99005.91;;;13.30;80.78
45621;BME280;31345;51.522;10.702;2023-01-01T08:11:16;98991.72;;;13.21;81.45
45621;BME280;31345;51.522;10.702;2023-01-01T08:13:44;98997.56;;;13.24;81.18
45621;BME280;31345;51.522;10.702;2023-01-01T08:16:12;98996.09;;;13.43;80.14
45621;BME280;31345;51.522;10.702;2023-01-01T08:18:40;99009.97;;;13.34;80.22
45621;BME280;31345;51.522;10.702;2023-01-01T08:21:08;99021.16;;;13.47;79.93
45621;BME280;31345;51.522;10.702;2023-01-01T08:23:36;99027.50;;;13.33;81.12
45621;BME280;31345;51.522;10.702;2023-01-01T08:26:12;99022.63;;;13.40;81.01
45621;BME280;31345;51.522;10.702;2023-01-01T08:28:41;99021.19;;;13.36;81.09
45621;BME280;31345;51.522;10.702;2023-01-01T08:31:09;99028.69;;;13.41;81.00
45621;BME280;31345;51.522;10.702;2023-01-01T08:33:38;99032.50;;;13.48;80.82
45621;BME280;31345;51.522;10.702;2023-01-01T08:36:07;99038.72;;;13.47;81.07
45621;BME280;31345;51.522;10.702;2023-01-01T08:38:37;99052.22;;;13.65;79.46
45621;BME280;31345;51.522;10.702;2023-01-01T08:41:04;99038.09;;;13.78;78.70
45621;BME280;31345;51.522;10.702;2023-01-01T08:43:32;99048.63;;;13.66;79.90
45621;BME280;31345;51.522;10.702;2023-01-01T08:45:59;99037.53;;;13.51;80.76
45621;BME280;31345;51.522;10.702;2023-01-01T08:48:27;99043.34;;;13.55;80.61
45621;BME280;31345;51.522;10.702;2023-01-01T08:50:57;99039.91;;;13.54;80.99
45621;BME280;31345;51.522;10.702;2023-01-01T08:53:26;99049.56;;;13.54;80.82
45621;BME280;31345;51.522;10.702;2023-01-01T08:55:55;99049.56;;;13.54;80.97
45621;BME280;31345;51.522;10.702;2023-01-01T08:58:24;99057.47;;;13.42;81.62
45621;BME280;31345;51.522;10.702;2023-01-01T09:00:52;99045.06;;;13.44;81.46
45621;BME280;31345;51.522;10.702;2023-01-01T09:03:20;99041.81;;;13.41;82.15
45621;BME280;31345;51.522;10.702;2023-01-01T09:05:48;99046.84;;;13.44;81.61
45621;BME280;31345;51.522;10.702;2023-01-01T09:08:17;99050.03;;;13.47;81.69
45621;BME280;31345;51.522;10.702;2023-01-01T09:10:45;99047.56;;;13.46;81.76
45621;BME280;31345;51.522;10.702;2023-01-01T09:13:15;99036.00;;;13.37;82.85
45621;BME280;31345;51.522;10.702;2023-01-01T09:15:44;99031.78;;;13.57;81.03
45621;BME280;31345;51.522;10.702;2023-01-01T09:18:12;99033.94;;;13.52;81.93
45621;BME280;31345;51.522;10.702;2023-01-01T09:20:40;99042.69;;;13.64;81.41
45621;BME280;31345;51.522;10.702;2023-01-01T09:23:09;99065.13;;;13.68;81.17
45621;BME280;31345;51.522;10.702;2023-01-01T09:25:39;99074.78;;;13.79;79.90
45621;BME280;31345;51.522;10.702;2023-01-01T09:28:09;99078.25;;;13.80;80.41
45621;BME280;31345;51.522;10.702;2023-01-01T09:30:37;99076.41;;;13.92;79.87
45621;BME280;31345;51.522;10.702;2023-01-01T09:33:05;99077.97;;;13.94;79.71
45621;BME280;31345;51.522;10.702;2023-01-01T09:35:33;99096.97;;;13.98;79.20
45621;BME280;31345;51.522;10.702;2023-01-01T09:38:01;99096.34;;;13.94;79.78
45621;BME280;31345;51.522;10.702;2023-01-01T09:40:36;99115.47;;;13.96;79.79
45621;BME280;31345;51.522;10.702;2023-01-01T09:43:17;99114.25;;;14.12;79.38
45621;BME280;31345;51.522;10.702;2023-01-01T09:45:54;99127.41;;;14.12;78.65
45621;BME280;31345;51.522;10.702;2023-01-01T09:48:23;99118.91;;;14.08;79.78
45621;BME280;31345;51.522;10.702;2023-01-01T09:50:52;99119.19;;;13.94;80.26
45621;BME280;31345;51.522;10.702;2023-01-01T09:53:28;99127.66;;;13.86;80.50
45621;BME280;31345;51.522;10.702;2023-01-01T09:55:59;99125.41;;;13.81;81.05
45621;BME280;31345;51.522;10.702;2023-01-01T09:58:33;99139.16;;;13.85;80.47
45621;BME280;31345;51.522;10.702;2023-01-01T10:01:05;99135.09;;;13.81;80.71
45621;BME280;31345;51.522;10.702;2023-01-01T10:03:40;99132.34;;;13.82;80.45
45621;BME280;31345;51.522;10.702;2023-01-01T10:06:19;99130.06;;;13.78;80.89
45621;BME280;31345;51.522;10.702;2023-01-01T10:09:02;99130.41;;;13.84;79.99
45621;BME280;31345;51.522;10.702;2023-01-01T10:11:41;99132.69;;;13.89;79.96
45621;BME280;31345;51.522;10.702;2023-01-01T10:14:18;99138.78;;;13.90;80.47
45621;BME280;31345;51.522;10.702;2023-01-01T10:16:52;99149.78;;;13.83;80.67
45621;BME280;31345;51.522;10.702;2023-01-01T10:19:26;99135.56;;;13.86;80.20
45621;BME280;31345;51.522;10.702;2023-01-01T10:22:02;99142.25;;;13.79;81.29
45621;BME280;31345;51.522;10.702;2023-01-01T10:24:41;99137.59;;;13.82;80.96
45621;BME280;31345;51.522;10.702;2023-01-01T10:27:19;99145.38;;;13.84;80.56
45621;BME280;31345;51.522;10.702;2023-01-01T10:29:51;99132.47;;;13.81;81.07
45621;BME280;31345;51.522;10.702;2023-01-01T10:32:21;99129.31;;;13.98;79.80
45621;BME280;31345;51.522;10.702;2023-01-01T10:34:52;99134.00;;;13.95;80.17
45621;BME280;31345;51.522;10.702;2023-01-01T10:37:20;99133.38;;;13.91;80.37
45621;BME280;31345;51.522;10.702;2023-01-01T10:39:48;99117.78;;;13.90;80.70
45621;BME280;31345;51.522;10.702;2023-01-01T10:42:16;99120.25;;;13.91;81.13
45621;BME280;31345;51.522;10.702;2023-01-01T10:44:45;99113.69;;;13.85;81.15
45621;BME280;31345;51.522;10.702;2023-01-01T10:47:25;99112.50;;;13.90;80.68
45621;BME280;31345;51.522;10.702;2023-01-01T10:49:56;99112.13;;;13.94;80.65
45621;BME280;31345;51.522;10.702;2023-01-01T10:52:27;99113.69;;;13.85;81.27
45621;BME280;31345;51.522;10.702;2023-01-01T10:54:57;99112.00;;;13.96;80.43
45621;BME280;31345;51.522;10.702;2023-01-01T10:57:32;99125.88;;;13.86;81.36
45621;BME280;31345;51.522;10.702;2023-01-01T11:00:22;99119.56;;;13.89;80.73
45621;BME280;31345;51.522;10.702;2023-01-01T11:03:13;99122.91;;;13.80;81.38
45621;BME280;31345;51.522;10.702;2023-01-01T11:05:59;99132.94;;;13.86;80.77
45621;BME280;31345;51.522;10.702;2023-01-01T11:08:28;99126.00;;;13.85;81.13
45621;BME280;31345;51.522;10.702;2023-01-01T11:10:58;99123.03;;;13.78;81.56
45621;BME280;31345;51.522;10.702;2023-01-01T11:13:27;99108.28;;;13.98;79.50
45621;BME280;31345;51.522;10.702;2023-01-01T11:15:56;99114.28;;;14.00;80.08
45621;BME280;31345;51.522;10.702;2023-01-01T11:18:27;99101.28;;;13.87;81.21
45621;BME280;31345;51.522;10.702;2023-01-01T11:21:02;99099.22;;;13.91;80.97
45621;BME280;31345;51.522;10.702;2023-01-01T11:23:32;99091.09;;;13.94;81.23
45621;BME280;31345;51.522;10.702;2023-01-01T11:26:04;99079.03;;;13.92;81.62
45621;BME280;31345;51.522;10.702;2023-01-01T11:28:33;99088.00;;;14.00;80.61
45621;BME280;31345;51.522;10.702;2023-01-01T11:31:04;99088.22;;;13.97;81.40
45621;BME280;31345;51.522;10.702;2023-01-01T11:33:43;99082.00;;;13.98;80.90
45621;BME280;31345;51.522;10.702;2023-01-01T11:36:19;99096.97;;;13.98;81.18
45621;BME280;31345;51.522;10.702;2023-01-01T11:38:49;99096.59;;;13.91;81.85
45621;BME280;31345;51.522;10.702;2023-01-01T11:41:20;99095.66;;;13.92;81.56
45621;BME280;31345;51.522;10.702;2023-01-01T11:43:48;99079.88;;;13.92;81.56
45621;BME280;31345;51.522;10.702;2023-01-01T11:46:21;99081.31;;;13.96;81.43
45621;BME280;31345;51.522;10.702;2023-01-01T11:48:53;99080.44;;;14.07;80.88
45621;BME280;31345;51.522;10.702;2023-01-01T11:51:30;99077.13;;;13.94;82.03
45621;BME280;31345;51.522;10.702;2023-01-01T11:54:09;99064.63;;;14.19;80.15
45621;BME280;31345;51.522;10.702;2023-01-01T11:56:38;99075.63;;;14.12;81.46
45621;BME280;31345;51.522;10.702;2023-01-01T11:59:13;99082.94;;;14.09;81.50
45621;BME280;31345;51.522;10.702;2023-01-01T12:01:45;99081.75;;;14.13;80.79
45621;BME280;31345;51.522;10.702;2023-01-01T12:04:21;99073.00;;;14.12;81.18
45621;BME280;31345;51.522;10.702;2023-01-01T12:06:55;99058.28;;;14.21;80.11
45621;BME280;31345;51.522;10.702;2023-01-01T12:09:29;99055.78;;;14.20;80.65
45621;BME280;31345;51.522;10.702;2023-01-01T12:12:02;99061.44;;;14.36;80.05
45621;BME280;31345;51.522;10.702;2023-01-01T12:14:36;99063.03;;;14.27;81.15
45621;BME280;31345;51.522;10.702;2023-01-01T12:17:13;99065.41;;;14.31;79.96
45621;BME280;31345;51.522;10.702;2023-01-01T12:19:55;99076.72;;;14.43;79.35
45621;BME280;31345;51.522;10.702;2023-01-01T12:22:25;99077.34;;;14.35;80.47
45621;BME280;31345;51.522;10.702;2023-01-01T12:24:53;99078.88;;;14.37;79.92
45621;BME280;31345;51.522;10.702;2023-01-01T12:27:32;99076.66;;;14.33;80.66
45621;BME280;31345;51.522;10.702;2023-01-01T12:30:10;99082.66;;;14.23;81.00
45621;BME280;31345;51.522;10.702;2023-01-01T12:32:53;99080.28;;;14.20;80.59
45621;BME280;31345;51.522;10.702;2023-01-01T12:35:40;99086.38;;;14.21;79.74
45621;BME280;31345;51.522;10.702;2023-01-01T12:38:22;99101.91;;;14.24;80.33
45621;BME280;31345;51.522;10.702;2023-01-01T12:41:01;99101.44;;;14.19;79.82
45621;BME280;31345;51.522;10.702;2023-01-01T12:43:37;99101.31;;;14.20;79.96
45621;BME280;31345;51.522;10.702;2023-01-01T12:46:32;99103.84;;;14.10;80.68
45621;BME280;31345;51.522;10.702;2023-01-01T12:49:18;99118.91;;;14.08;81.53
45621;BME280;31345;51.522;10.702;2023-01-01T12:51:59;99121.78;;;14.05;82.15
45621;BME280;31345;51.522;10.702;2023-01-01T12:54:49;99125.88;;;13.98;82.15
45621;BME280;31345;51.522;10.702;2023-01-01T12:57:30;99131.25;;;13.96;82.05
45621;BME280;31345;51.522;10.702;2023-01-01T13:00:02;99126.09;;;14.06;81.25
45621;BME280;31345;51.522;10.702;2023-01-01T13:02:33;99136.50;;;14.08;81.69
45621;BME280;31345;51.522;10.702;2023-01-01T13:05:06;99140.31;;;14.04;81.81
45621;BME280;31345;51.522;10.702;2023-01-01T13:07:45;99147.81;;;14.08;81.10
45621;BME280;31345;51.522;10.702;2023-01-01T13:10:24;99142.69;;;13.95;81.97